Time;durP1;ratioP1;P1;durP2;ratioP2;P2;SDS_P1;SDS_P2;PMS_P1;PMS_P2;Temp;Humidity;BMP_temperature;BMP_pressure;BME280_temperature;BME280_humidity;BME280_pressure;Samples;Min_cycle;Max_cycle;Signal;HPM_P1;HPM_P2
2023/06/09 00:03:42;;;;;;;;;;;;;;;14.92;97.37;101547.94;10441523;28;19917;-76
2023/06/09 00:08:42;;;;;;;;;;;;;;;14.87;98.30;101540.41;10441191;28;19990;-76
2023/06/09 00:13:42;;;;;;;;;;;;;;;14.83;100.00;101539.13;10441631;28;20377;-76
2023/06/09 00:18:43;;;;;;;;;;;;;;;14.75;100.00;101534.72;10441315;28;20275;-77
2023/06/09 00:23:47;;;;;;;;;;;;;;;14.74;99.73;101532.19;10458571;28;19939;-76
2023/06/09 00:28:47;;;;;;;;;;;;;;;14.70;100.00;101539.13;10440820;28;19917;-76
2023/06/09 00:33:47;;;;;;;;;;;;;;;14.65;100.00;101528.84;10440730;28;19919;-76
2023/06/09 00:38:47;;;;;;;;;;;;;;;14.63;100.00;101520.88;10440509;28;19916;-76
2023/06/09 00:43:47;;;;;;;;;;;;;;;14.57;100.00;101513.53;10458917;28;20381;-76
2023/06/09 00:48:48;;;;;;;;;;;;;;;14.53;100.00;101522.34;10440608;28;19917;-76
2023/06/09 00:53:48;;;;;;;;;;;;;;;14.48;100.00;101519.38;10440833;28;19917;-77
2023/06/09 00:58:49;;;;;;;;;;;;;;;14.45;100.00;101530.69;10457090;28;19916;-77
2023/06/09 01:03:50;;;;;;;;;;;;;;;14.39;100.00;101529.66;10440832;28;20011;-76
2023/06/09 01:08:52;;;;;;;;;;;;;;;14.32;100.00;101531.50;10439493;28;19917;-76
2023/06/09 01:14:03;;;;;;;;;;;;;;;14.27;99.68;101528.56;10457001;28;19912;-76
2023/06/09 01:19:05;;;;;;;;;;;;;;;14.21;98.42;101523.94;10438471;28;19958;-76
2023/06/09 01:24:14;;;;;;;;;;;;;;;14.14;99.58;101522.03;10439309;28;19923;-76
2023/06/09 01:29:15;;;;;;;;;;;;;;;14.08;100.00;101514.69;10438855;28;19923;-77
2023/06/09 01:34:15;;;;;;;;;;;;;;;14.04;100.00;101509.84;10438420;28;19919;-76
2023/06/09 01:39:15;;;;;;;;;;;;;;;13.94;100.00;101507.50;10455611;28;19921;-76
2023/06/09 01:44:16;;;;;;;;;;;;;;;13.92;100.00;101498.72;10438666;28;19935;-76
2023/06/09 01:49:22;;;;;;;;;;;;;;;13.85;100.00;101493.28;10456199;28;19924;-76
2023/06/09 01:54:23;;;;;;;;;;;;;;;13.84;100.00;101496.19;10437832;28;19970;-76
2023/06/09 01:59:25;;;;;;;;;;;;;;;13.83;100.00;101505.41;10456202;28;19935;-76
2023/06/09 02:04:25;;;;;;;;;;;;;;;13.82;100.00;101479.22;10437624;28;20263;-76
2023/06/09 02:09:25;;;;;;;;;;;;;;;13.78;100.00;101486.94;10436449;28;19912;-76
2023/06/09 02:14:32;;;;;;;;;;;;;;;13.72;100.00;101488.63;10455807;28;19920;-76
2023/06/09 02:19:35;;;;;;;;;;;;;;;13.67;100.00;101482.94;10456370;28;19960;-76
2023/06/09 02:24:36;;;;;;;;;;;;;;;13.64;100.00;101485.22;10455073;28;19955;-76
2023/06/09 02:29:36;;;;;;;;;;;;;;;13.61;100.00;101491.91;10454590;28;19960;-76
2023/06/09 02:34:37;;;;;;;;;;;;;;;13.55;100.00;101490.00;10437897;28;20015;-76
2023/06/09 02:39:37;;;;;;;;;;;;;;;13.57;100.00;101487.09;10436817;28;19917;-76
2023/06/09 02:44:37;;;;;;;;;;;;;;;13.55;100.00;101487.28;10436614;28;19917;-76
2023/06/09 02:49:38;;;;;;;;;;;;;;;13.56;100.00;101474.50;10436680;28;20301;-76
2023/06/09 02:54:39;;;;;;;;;;;;;;;13.51;100.00;101474.28;10436228;28;19921;-76
2023/06/09 02:59:39;;;;;;;;;;;;;;;13.49;100.00;101467.16;10436507;28;19921;-76
2023/06/09 03:04:40;;;;;;;;;;;;;;;13.50;100.00;101473.47;10435590;28;20359;-76
2023/06/09 03:09:40;;;;;;;;;;;;;;;13.49;100.00;101474.47;10454123;28;19921;-76
2023/06/09 03:14:41;;;;;;;;;;;;;;;13.51;100.00;101474.28;10453834;28;19944;-76
2023/06/09 03:19:41;;;;;;;;;;;;;;;13.53;100.00;101473.06;10456166;28;19920;-76
2023/06/09 03:24:44;;;;;;;;;;;;;;;13.54;100.00;101466.56;10426809;28;19956;-76
2023/06/09 03:29:44;;;;;;;;;;;;;;;13.51;100.00;101463.41;10461199;28;20245;-76
2023/06/09 03:34:45;;;;;;;;;;;;;;;13.55;100.00;101470.94;10442991;28;19916;-76
2023/06/09 03:39:45;;;;;;;;;;;;;;;13.53;100.00;101456.72;10442933;28;20267;-76
2023/06/09 03:44:47;;;;;;;;;;;;;;;13.54;100.00;101473.88;10444127;28;19913;-77
2023/06/09 03:49:47;;;;;;;;;;;;;;;13.57;100.00;101468.88;10443181;28;19924;-76
2023/06/09 03:54:48;;;;;;;;;;;;;;;13.62;100.00;101470.97;10426619;28;19920;-76
2023/06/09 03:59:48;;;;;;;;;;;;;;;13.67;100.00;101466.59;10441491;28;20352;-76
2023/06/09 04:04:48;;;;;;;;;;;;;;;13.71;100.00;101458.88;10441938;28;20027;-76
2023/06/09 04:09:48;;;;;;;;;;;;;;;13.80;100.00;101467.69;10441615;28;20347;-76
2023/06/09 04:14:50;;;;;;;;;;;;;;;13.82;100.00;101466.47;10424383;28;19964;-76
2023/06/09 04:19:51;;;;;;;;;;;;;;;13.86;100.00;101464.16;10458965;28;19916;-76
2023/06/09 04:24:51;;;;;;;;;;;;;;;13.91;100.00;101465.22;10440955;28;19917;-76
2023/06/09 04:29:51;;;;;;;;;;;;;;;14.01;99.53;101483.88;10458872;28;19916;-76
2023/06/09 04:34:52;;;;;;;;;;;;;;;14.00;98.98;101478.63;10457487;28;19997;-76
2023/06/09 04:39:52;;;;;;;;;;;;;;;14.51;97.46;101484.38;10440847;28;20213;-76
2023/06/09 04:44:53;;;;;;;;;;;;;;;15.20;93.59;101483.06;10440245;28;19932;-76
2023/06/09 04:49:53;;;;;;;;;;;;;;;15.67;91.45;101481.03;10423680;28;20209;-76
2023/06/09 04:54:54;;;;;;;;;;;;;;;15.92;89.68;101478.41;10456994;28;19931;-76
2023/06/09 04:59:54;;;;;;;;;;;;;;;16.11;87.68;101478.47;10457165;28;19924;-76
2023/06/09 05:04:55;;;;;;;;;;;;;;;16.31;86.89;101487.38;10457938;28;19913;-76
2023/06/09 05:09:55;;;;;;;;;;;;;;;16.43;85.70;101485.63;10439440;28;19916;-76
2023/06/09 05:14:55;;;;;;;;;;;;;;;16.59;84.27;101486.09;10456738;28;19917;-76
2023/06/09 05:19:55;;;;;;;;;;;;;;;16.85;83.50;101491.38;10438717;28;19916;-76
2023/06/09 05:24:56;;;;;;;;;;;;;;;17.13;82.87;101487.31;10438737;28;20341;-76
2023/06/09 05:29:56;;;;;;;;;;;;;;;17.40;81.52;101487.88;10438720;28;19936;-75
2023/06/09 05:34:56;;;;;;;;;;;;;;;17.55;80.35;101495.66;10456276;28;20019;-76
2023/06/09 05:39:57;;;;;;;;;;;;;;;17.78;79.52;101509.53;10438614;28;19917;-76
2023/06/09 05:44:57;;;;;;;;;;;;;;;17.99;78.47;101504.63;10439116;28;20003;-76
2023/06/09 05:49:57;;;;;;;;;;;;;;;18.27;77.08;101491.13;10454945;28;20352;-76
2023/06/09 05:54:57;;;;;;;;;;;;;;;18.47;76.77;101501.78;10456912;28;19925;-76
2023/06/09 05:59:58;;;;;;;;;;;;;;;18.75;76.60;101484.69;10454797;28;20019;-75
2023/06/09 06:04:58;;;;;;;;;;;;;;;19.27;74.99;101486.69;10420930;28;19924;-76
2023/06/09 06:09:58;;;;;;;;;;;;;;;19.26;70.19;101494.09;10454937;28;19963;-76
2023/06/09 06:14:59;;;;;;;;;;;;;;;19.05;72.54;101494.72;10454522;28;19916;-76
2023/06/09 06:19:59;;;;;;;;;;;;;;;19.28;71.96;101486.47;10454590;28;20007;-75
2023/06/09 06:25:00;;;;;;;;;;;;;;;19.55;71.21;101485.91;10436677;28;20010;-75
2023/06/09 06:30:02;;;;;;;;;;;;;;;19.96;70.74;101487.59;10420972;28;20233;-67
2023/06/09 06:35:02;;;;;;;;;;;;;;;20.34;68.97;101493.50;10455061;28;19939;-78
2023/06/09 06:40:03;;;;;;;;;;;;;;;20.74;68.04;101495.28;10455295;28;20348;-75
2023/06/09 06:45:03;;;;;;;;;;;;;;;21.04;67.27;101490.25;10454698;28;19924;-70
2023/06/09 06:50:04;;;;;;;;;;;;;;;21.61;66.44;101491.88;10436204;28;20019;-77
2023/06/09 06:55:07;;;;;;;;;;;;;;;21.86;62.82;101491.34;10439044;28;20329;-71
2023/06/09 07:00:14;;;;;;;;;;;;;;;22.15;63.47;101500.22;10444206;28;19920;-81
2023/06/09 07:05:15;;;;;;;;;;;;;;;22.68;63.24;101492.97;10444945;28;20283;-71
2023/06/09 07:10:15;;;;;;;;;;;;;;;22.96;60.42;101500.13;10444239;28;19913;-71
2023/06/09 07:15:15;;;;;;;;;;;;;;;23.15;57.59;101499.69;10400818;28;20290;-77
2023/06/09 07:20:17;;;;;;;;;;;;;;;23.18;59.42;101494.47;10345684;28;19961;-77
2023/06/09 07:25:17;;;;;;;;;;;;;;;23.68;58.76;101489.44;10362123;28;19921;-80
2023/06/09 07:30:18;;;;;;;;;;;;;;;23.87;57.16;101490.66;10360847;28;19914;-83
2023/06/09 07:35:19;;;;;;;;;;;;;;;24.20;55.33;101494.03;10346228;28;19956;-77
2023/06/09 07:40:20;;;;;;;;;;;;;;;24.52;53.36;101491.03;10366924;28;19918;-80
2023/06/09 07:45:20;;;;;;;;;;;;;;;24.86;52.72;101495.19;10346176;28;19913;-78
2023/06/09 07:50:21;;;;;;;;;;;;;;;25.13;53.65;101489.34;10347464;28;19928;-80
2023/06/09 07:55:27;;;;;;;;;;;;;;;25.62;53.46;101489.44;10318260;28;19947;-84
2023/06/09 08:00:28;;;;;;;;;;;;;;;26.12;53.29;101490.28;10324577;28;19969;-78
2023/06/09 08:05:29;;;;;;;;;;;;;;;26.52;49.36;101495.88;10323168;28;20424;-74
2023/06/09 08:10:29;;;;;;;;;;;;;;;26.10;49.86;101494.47;10321959;28;19977;-79
2023/06/09 08:15:36;;;;;;;;;;;;;;;26.35;49.51;101488.72;10340058;28;20024;-81
2023/06/09 08:20:41;;;;;;;;;;;;;;;26.50;50.31;101492.53;10337335;28;19914;-78
2023/06/09 08:25:44;;;;;;;;;;;;;;;26.92;49.82;101479.94;10336642;28;19914;-78
2023/06/09 08:30:44;;;;;;;;;;;;;;;27.31;50.27;101496.47;10320761;28;19914;-80
2023/06/09 08:35:44;;;;;;;;;;;;;;;27.27;49.87;101487.09;10336906;28;19917;-72
2023/06/09 08:40:45;;;;;;;;;;;;;;;27.77;48.46;101482.03;10336002;28;20016;-77
2023/06/09 08:45:46;;;;;;;;;;;;;;;28.39;50.07;101476.34;10318754;28;20003;-75
2023/06/09 08:50:46;;;;;;;;;;;;;;;28.44;47.80;101476.31;10317838;28;19937;-76
2023/06/09 08:55:47;;;;;;;;;;;;;;;29.14;49.94;101472.56;10318150;28;20308;-82
2023/06/09 09:00:47;;;;;;;;;;;;;;;29.10;46.21;101471.50;10317537;28;20318;-75
2023/06/09 09:05:49;;;;;;;;;;;;;;;28.70;46.79;101473.91;10302366;28;19914;-80
2023/06/09 09:10:52;;;;;;;;;;;;;;;28.84;47.05;101471.97;10317238;28;19914;-79
2023/06/09 09:15:52;;;;;;;;;;;;;;;28.81;46.86;101468.97;10334300;28;19920;-77
2023/06/09 09:20:52;;;;;;;;;;;;;;;29.43;46.42;101475.03;10316659;28;20384;-74
2023/06/09 09:25:53;;;;;;;;;;;;;;;29.85;47.36;101471.06;10301285;28;20000;-75
2023/06/09 09:30:56;;;;;;;;;;;;;;;30.01;46.01;101473.50;10316595;28;20262;-82
2023/06/09 09:35:58;;;;;;;;;;;;;;;29.47;44.86;101464.06;10318153;28;19913;-81
2023/06/09 09:41:00;;;;;;;;;;;;;;;29.61;44.91;101464.91;10317649;28;19921;-74
2023/06/09 09:46:07;;;;;;;;;;;;;;;30.22;46.53;101457.94;10302022;28;19989;-81
2023/06/09 09:51:11;;;;;;;;;;;;;;;30.63;46.92;101456.06;10300842;28;19917;-72
2023/06/09 09:56:11;;;;;;;;;;;;;;;31.23;46.52;101459.16;10298801;28;19926;-70
2023/06/09 10:01:11;;;;;;;;;;;;;;;31.19;45.48;101454.56;10315295;28;19914;-71
2023/06/09 10:06:56;;;;;;;;;;;;;;;31.43;43.40;101455.00;10315462;28;20381;-78
2023/06/09 10:17:25;;;;;;;;;;;;;;;31.19;44.42;101446.16;10208573;29;19915;-73
2023/06/09 10:22:28;;;;;;;;;;;;;;;31.69;44.87;101438.25;10288269;28;19921;-76
2023/06/09 10:27:32;;;;;;;;;;;;;;;31.79;44.66;101431.50;10314992;28;19913;-78
2023/06/09 10:32:33;;;;;;;;;;;;;;;31.91;41.39;101439.28;10322492;28;20357;-74
2023/06/09 10:37:34;;;;;;;;;;;;;;;32.40;44.04;101439.88;10323396;28;19914;-73
2023/06/09 10:42:57;;;;;;;;;;;;;;;32.42;43.47;101434.78;10356178;28;19917;-73
2023/06/09 10:48:16;;;;;;;;;;;;;;;31.92;40.24;101424.94;10403504;28;20419;-74
2023/06/09 10:53:22;;;;;;;;;;;;;;;32.07;40.32;101425.56;10388809;28;19964;-73
2023/06/09 10:58:55;;;;;;;;;;;;;;;31.87;41.78;101404.63;10420833;28;19926;-72
2023/06/09 11:03:55;;;;;;;;;;;;;;;32.58;41.91;101413.50;10397209;28;20011;-70
2023/06/09 11:09:25;;;;;;;;;;;;;;;;;;;;;
2023/06/09 11:14:48;;;;;;;;;;;;;;;32.57;40.75;101392.19;10280849;28;20018;-78
2023/06/09 11:19:51;;;;;;;;;;;;;;;32.35;39.47;101392.41;10421175;28;19914;-69
2023/06/09 11:24:57;;;;;;;;;;;;;;;31.73;39.29;101391.63;10385596;28;19917;-72
2023/06/09 11:30:07;;;;;;;;;;;;;;;32.02;39.61;101390.16;10402929;28;19913;-70
2023/06/09 11:35:15;;;;;;;;;;;;;;;32.18;40.00;101385.66;10401528;28;20299;-78
2023/06/09 11:40:16;;;;;;;;;;;;;;;32.44;41.27;101376.41;10386603;28;20011;-75
2023/06/09 11:45:33;;;;;;;;;;;;;;;33.11;40.77;101378.44;10400801;28;19913;-83
2023/06/09 11:56:15;;;;;;;;;;;;;;;33.10;38.16;101368.38;10368704;28;20217;-72
2023/06/09 12:01:19;;;;;;;;;;;;;;;32.91;38.54;101361.53;10373745;28;19922;-72
2023/06/09 12:06:36;;;;;;;;;;;;;;;33.01;37.71;101370.41;10356279;28;19922;-76
2023/06/09 12:11:48;;;;;;;;;;;;;;;32.79;37.71;101356.66;10356356;28;19940;-77
2023/06/09 12:16:55;;;;;;;;;;;;;;;33.00;37.94;101351.13;10355931;28;19921;-77
2023/06/09 12:21:56;;;;;;;;;;;;;;;32.65;36.49;101351.28;10371984;28;20341;-77
2023/06/09 12:26:57;;;;;;;;;;;;;;;33.24;37.85;101342.88;10364946;28;19922;-77
2023/06/09 12:31:57;;;;;;;;;;;;;;;33.17;36.95;101336.16;10359144;28;19917;-77
2023/06/09 12:36:58;;;;;;;;;;;;;;;33.19;37.33;101325.44;10343141;28;19937;-77
2023/06/09 12:42:18;;;;;;;;;;;;;;;33.63;35.47;101312.69;10358209;28;19918;-77
2023/06/09 12:47:19;;;;;;;;;;;;;;;32.92;36.33;101327.53;10375676;28;19917;-77
2023/06/09 12:52:23;;;;;;;;;;;;;;;33.09;37.58;101321.84;10357192;28;19917;-77
2023/06/09 12:57:23;;;;;;;;;;;;;;;32.98;35.54;101312.19;10375450;28;20257;-77
2023/06/09 13:02:24;;;;;;;;;;;;;;;33.12;36.15;101309.09;10398572;28;19917;-77
2023/06/09 13:07:24;;;;;;;;;;;;;;;33.38;36.30;101306.13;10398295;28;19917;-77
2023/06/09 13:12:24;;;;;;;;;;;;;;;33.41;36.37;101316.66;10382457;28;19917;-76
2023/06/09 13:17:25;;;;;;;;;;;;;;;33.22;35.81;101300.31;10397793;28;19957;-77
2023/06/09 13:22:26;;;;;;;;;;;;;;;32.93;36.45;101301.13;10415343;28;19979;-77
2023/06/09 13:27:26;;;;;;;;;;;;;;;33.47;36.69;101309.69;10397610;28;19921;-76
2023/06/09 13:32:26;;;;;;;;;;;;;;;33.12;35.64;101311.91;10396673;28;19925;-74
2023/06/09 13:42:52;;;;;;;;;;;;;;;33.13;35.30;101296.72;10328615;28;19937;-73
2023/06/09 13:47:57;;;;;;;;;;;;;;;32.71;35.38;101295.81;10327462;28;21280;-72
2023/06/09 13:52:58;;;;;;;;;;;;;;;32.89;36.54;101284.13;10328128;28;19922;-72
2023/06/09 13:57:58;;;;;;;;;;;;;;;33.05;35.88;101280.78;10327741;28;19921;-73
2023/06/09 14:03:00;;;;;;;;;;;;;;;32.72;35.82;101270.22;10327510;28;19922;-72
2023/06/09 14:08:00;;;;;;;;;;;;;;;31.59;37.06;101276.19;10311467;28;19969;-73
2023/06/09 14:13:01;;;;;;;;;;;;;;;31.22;37.59;101263.66;10365581;28;19949;-72
2023/06/09 14:18:01;;;;;;;;;;;;;;;31.19;36.99;101262.31;10396199;28;19921;-73
2023/06/09 14:23:04;;;;;;;;;;;;;;;31.35;37.45;101261.88;10395633;28;20362;-74
2023/06/09 14:28:04;;;;;;;;;;;;;;;31.26;37.46;101270.22;10413338;28;20040;-72
2023/06/09 14:33:05;;;;;;;;;;;;;;;31.47;36.16;101267.63;10413673;28;20369;-73
2023/06/09 14:38:05;;;;;;;;;;;;;;;30.68;33.69;101269.44;10396340;28;19973;-69
2023/06/09 14:43:06;;;;;;;;;;;;;;;31.44;35.55;101265.50;10394849;28;19944;-69
2023/06/09 14:48:07;;;;;;;;;;;;;;;31.71;32.88;101250.28;10413789;28;19917;-70
2023/06/09 14:53:07;;;;;;;;;;;;;;;31.46;31.31;101254.75;10395750;28;19917;-70
2023/06/09 14:58:08;;;;;;;;;;;;;;;31.24;32.71;101241.78;10378580;28;19921;-69
2023/06/09 15:03:12;;;;;;;;;;;;;;;31.76;33.21;101229.72;10411765;28;20016;-70
2023/06/09 15:08:12;;;;;;;;;;;;;;;32.13;32.20;101217.75;10394253;28;19921;-71
2023/06/09 15:13:13;;;;;;;;;;;;;;;31.33;34.89;101227.75;10377844;28;20404;-70
2023/06/09 15:18:13;;;;;;;;;;;;;;;31.60;36.68;101210.63;10417898;28;19987;-70
2023/06/09 15:23:14;;;;;;;;;;;;;;;31.07;36.61;101225.78;10402470;28;20042;-70
2023/06/09 15:28:14;;;;;;;;;;;;;;;30.64;35.44;101215.34;10418803;28;19921;-70
2023/06/09 15:33:16;;;;;;;;;;;;;;;30.90;35.70;101211.78;10420627;28;19917;-70
2023/06/09 15:38:16;;;;;;;;;;;;;;;30.74;33.36;101201.06;10401746;28;19917;-71
2023/06/09 15:43:17;;;;;;;;;;;;;;;31.13;33.95;101201.28;10384795;28;19923;-70
2023/06/09 15:48:17;;;;;;;;;;;;;;;31.04;32.82;101204.06;10400744;28;19924;-70
2023/06/09 15:53:19;;;;;;;;;;;;;;;30.94;31.83;101207.19;10418636;28;20269;-70
2023/06/09 15:58:19;;;;;;;;;;;;;;;30.77;31.90;101197.63;10399208;28;19931;-70
2023/06/09 16:03:20;;;;;;;;;;;;;;;30.43;31.99;101195.56;10418381;28;20020;-70
2023/06/09 16:08:20;;;;;;;;;;;;;;;30.29;32.50;101183.69;10399550;28;19925;-70
2023/06/09 16:13:20;;;;;;;;;;;;;;;30.34;33.15;101189.97;10399850;28;20011;-70
2023/06/09 16:18:21;;;;;;;;;;;;;;;30.33;33.79;101188.31;10400435;28;19945;-69
2023/06/09 16:23:21;;;;;;;;;;;;;;;29.81;33.00;101185.28;10417977;28;20095;-70
2023/06/09 16:28:22;;;;;;;;;;;;;;;29.47;33.65;101173.88;10399034;28;19931;-70
2023/06/09 16:33:22;;;;;;;;;;;;;;;29.21;33.62;101166.16;10400207;28;20373;-69
2023/06/09 16:38:23;;;;;;;;;;;;;;;29.01;33.66;101173.06;10399266;28;20288;-70
2023/06/09 16:43:23;;;;;;;;;;;;;;;28.98;33.67;101174.50;10399357;28;19991;-70
2023/06/09 16:48:23;;;;;;;;;;;;;;;28.89;33.54;101176.38;10417217;28;19917;-69
2023/06/09 16:53:23;;;;;;;;;;;;;;;28.79;34.23;101179.41;10416954;28;20411;-69
2023/06/09 16:58:24;;;;;;;;;;;;;;;28.75;33.89;101167.25;10418180;28;19980;-70
2023/06/09 17:03:24;;;;;;;;;;;;;;;28.62;34.25;101171.72;10383463;28;20030;-70
2023/06/09 17:08:24;;;;;;;;;;;;;;;28.43;33.81;101180.19;10399215;28;19945;-72
2023/06/09 17:13:25;;;;;;;;;;;;;;;28.38;34.36;101174.69;10416710;28;19921;-70
2023/06/09 17:18:25;;;;;;;;;;;;;;;28.49;34.59;101173.38;10416230;28;19918;-69
2023/06/09 17:23:25;;;;;;;;;;;;;;;28.49;34.74;101172.53;10415401;28;20387;-71
2023/06/09 17:28:26;;;;;;;;;;;;;;;28.49;35.18;101170.59;10415279;28;20023;-70
2023/06/09 17:33:26;;;;;;;;;;;;;;;28.34;35.25;101175.66;10398129;28;19956;-71
2023/06/09 17:38:26;;;;;;;;;;;;;;;28.37;35.45;101175.03;10414938;28;19998;-69
2023/06/09 17:43:26;;;;;;;;;;;;;;;28.25;35.77;101181.09;10397111;28;19921;-69
2023/06/09 17:48:27;;;;;;;;;;;;;;;28.20;35.84;101170.88;10414725;28;19968;-70
2023/06/09 17:53:27;;;;;;;;;;;;;;;28.15;36.29;101176.56;10416273;28;20357;-69
2023/06/09 17:58:27;;;;;;;;;;;;;;;28.14;36.62;101190.78;10416195;28;19925;-70
2023/06/09 18:03:27;;;;;;;;;;;;;;;28.01;36.84;101173.75;10415554;28;20087;-70
2023/06/09 18:08:28;;;;;;;;;;;;;;;27.97;37.45;101175.53;10398948;28;19921;-68
2023/06/09 18:13:28;;;;;;;;;;;;;;;27.95;37.48;101180.59;10399028;28;19922;-70
2023/06/09 18:18:28;;;;;;;;;;;;;;;27.93;37.52;101180.06;10398552;28;19971;-70
2023/06/09 18:23:29;;;;;;;;;;;;;;;27.85;38.05;101182.72;10396739;28;19928;-70
2023/06/09 18:28:29;;;;;;;;;;;;;;;27.76;38.57;101188.13;10396121;28;19921;-70
2023/06/09 18:33:30;;;;;;;;;;;;;;;27.65;38.92;101192.25;10413781;28;19921;-70
2023/06/09 18:38:30;;;;;;;;;;;;;;;27.55;38.99;101196.03;10394964;28;20409;-70
2023/06/09 18:43:30;;;;;;;;;;;;;;;27.47;39.10;101208.69;10395151;28;19985;-70
2023/06/09 18:48:31;;;;;;;;;;;;;;;27.43;39.18;101212.38;10396038;28;20333;-71
2023/06/09 18:53:31;;;;;;;;;;;;;;;27.33;39.67;101213.38;10401848;28;20347;-71
2023/06/09 18:58:31;;;;;;;;;;;;;;;27.20;40.00;101219.69;10402857;28;20369;-70
2023/06/09 19:03:31;;;;;;;;;;;;;;;27.06;40.30;101214.88;10419961;28;19932;-69
2023/06/09 19:08:32;;;;;;;;;;;;;;;26.99;40.17;101222.72;10420686;28;20370;-68
2023/06/09 19:13:32;;;;;;;;;;;;;;;26.86;40.63;101227.09;10420339;28;19925;-72
2023/06/09 19:18:32;;;;;;;;;;;;;;;26.74;41.07;101239.75;10420979;28;19921;-70
2023/06/09 19:23:32;;;;;;;;;;;;;;;26.62;41.22;101235.47;10420422;28;20390;-69
2023/06/09 19:28:33;;;;;;;;;;;;;;;26.49;41.69;101247.31;10419754;28;19940;-69
2023/06/09 19:33:33;;;;;;;;;;;;;;;26.34;41.48;101244.69;10401661;28;19917;-70
2023/06/09 19:38:33;;;;;;;;;;;;;;;26.15;41.79;101234.31;10402550;28;20221;-69
2023/06/09 19:43:34;;;;;;;;;;;;;;;25.98;41.93;101242.28;10420389;28;19967;-69
2023/06/09 19:48:34;;;;;;;;;;;;;;;25.83;42.13;101250.75;10400938;28;20348;-70
2023/06/09 19:53:34;;;;;;;;;;;;;;;25.68;43.02;101263.59;10401260;28;19918;-69
2023/06/09 19:58:35;;;;;;;;;;;;;;;25.53;43.24;101263.75;10400839;28;19925;-69
2023/06/09 20:03:35;;;;;;;;;;;;;;;25.40;43.23;101272.69;10400659;28;19925;-69
2023/06/09 20:08:35;;;;;;;;;;;;;;;25.29;43.45;101283.03;10400589;28;20375;-70
2023/06/09 20:13:36;;;;;;;;;;;;;;;25.15;44.12;101287.56;10400078;28;19921;-69
2023/06/09 20:18:36;;;;;;;;;;;;;;;25.09;44.11;101297.81;10399526;28;19921;-70
2023/06/09 20:23:40;;;;;;;;;;;;;;;24.99;44.14;101298.69;10382248;28;20050;-68
2023/06/09 20:28:43;;;;;;;;;;;;;;;24.85;44.30;101299.59;10416314;28;20336;-69
2023/06/09 20:33:44;;;;;;;;;;;;;;;24.68;44.74;101308.25;10399307;28;19917;-69
2023/06/09 20:38:45;;;;;;;;;;;;;;;24.51;44.90;101312.19;10416748;28;20019;-68
2023/06/09 20:43:48;;;;;;;;;;;;;;;24.41;46.83;101314.97;10416281;28;20071;-69
2023/06/09 20:48:48;;;;;;;;;;;;;;;24.34;48.22;101320.75;10417262;28;19941;-67
2023/06/09 20:53:48;;;;;;;;;;;;;;;24.39;47.91;101324.63;10399475;28;20389;-68
2023/06/09 20:58:49;;;;;;;;;;;;;;;24.33;48.67;101316.34;10416359;28;20005;-71
2023/06/09 21:03:49;;;;;;;;;;;;;;;24.31;49.34;101320.47;10416136;28;20298;-71
2023/06/09 21:08:50;;;;;;;;;;;;;;;24.28;49.05;101326.56;10382254;28;19933;-69
2023/06/09 21:13:50;;;;;;;;;;;;;;;24.20;49.21;101325.22;10415274;28;19932;-69
2023/06/09 21:18:50;;;;;;;;;;;;;;;24.09;50.86;101326.31;10397510;28;19933;-71
2023/06/09 21:23:50;;;;;;;;;;;;;;;24.01;50.79;101330.47;10414763;28;20016;-69
2023/06/09 21:28:51;;;;;;;;;;;;;;;23.95;50.03;101331.59;10415423;28;20280;-70
2023/06/09 21:33:52;;;;;;;;;;;;;;;23.86;50.73;101323.00;10397142;28;19925;-70
2023/06/09 21:38:52;;;;;;;;;;;;;;;23.80;51.03;101337.97;10414828;28;19922;-70
2023/06/09 21:43:52;;;;;;;;;;;;;;;23.73;52.90;101340.16;10414018;28;19921;-70
2023/06/09 21:48:52;;;;;;;;;;;;;;;23.70;52.19;101346.22;10397105;28;19967;-71
2023/06/09 21:53:53;;;;;;;;;;;;;;;23.65;52.25;101352.56;10413135;28;19960;-70
2023/06/09 21:58:53;;;;;;;;;;;;;;;23.58;52.51;101348.38;10414126;28;19925;-72
2023/06/09 22:03:53;;;;;;;;;;;;;;;23.53;53.17;101348.41;10412938;28;20281;-71
2023/06/09 22:08:53;;;;;;;;;;;;;;;23.44;54.01;101351.69;10395477;28;19921;-71
2023/06/09 22:13:54;;;;;;;;;;;;;;;23.38;53.59;101355.53;10412274;28;19921;-69
2023/06/09 22:18:55;;;;;;;;;;;;;;;23.27;53.74;101358.56;10413311;28;20004;-69
2023/06/09 22:23:55;;;;;;;;;;;;;;;23.10;55.49;101356.84;10413356;28;20034;-70
2023/06/09 22:28:55;;;;;;;;;;;;;;;22.97;53.41;101360.94;10413386;28;20257;-70
2023/06/09 22:33:55;;;;;;;;;;;;;;;22.73;53.39;101363.25;10395545;28;20015;-68
2023/06/09 22:38:56;;;;;;;;;;;;;;;22.52;52.95;101370.56;10413697;28;20276;-69
2023/06/09 22:43:57;;;;;;;;;;;;;;;22.36;54.03;101360.53;10413292;28;19925;-70
2023/06/09 22:49:02;;;;;;;;;;;;;;;22.19;54.27;101360.69;10413171;28;19925;-69
2023/06/09 22:54:03;;;;;;;;;;;;;;;22.04;54.01;101375.16;10395961;28;19929;-70
2023/06/09 22:59:03;;;;;;;;;;;;;;;21.88;53.74;101370.59;10395619;28;19960;-70
2023/06/09 23:04:10;;;;;;;;;;;;;;;21.72;53.48;101372.38;10413022;28;19957;-71
2023/06/09 23:09:10;;;;;;;;;;;;;;;21.54;53.67;101375.50;10394649;28;19962;-69
2023/06/09 23:14:11;;;;;;;;;;;;;;;21.39;53.90;101375.34;10412490;28;20016;-69
2023/06/09 23:19:13;;;;;;;;;;;;;;;21.23;54.42;101379.81;10394490;28;20327;-70
2023/06/09 23:24:14;;;;;;;;;;;;;;;21.10;55.23;101381.03;10413064;28;19917;-68
2023/06/09 23:29:14;;;;;;;;;;;;;;;20.99;55.15;101384.72;10394730;28;20278;-69
2023/06/09 23:34:14;;;;;;;;;;;;;;;20.89;55.27;101386.25;10394995;28;19917;-69
2023/06/09 23:39:14;;;;;;;;;;;;;;;20.84;56.24;101388.94;10400579;28;20035;-69
2023/06/09 23:44:15;;;;;;;;;;;;;;;20.83;56.99;101392.75;10402449;28;20272;-69
2023/06/09 23:49:15;;;;;;;;;;;;;;;20.74;56.48;101393.44;10419744;28;20328;-69
2023/06/09 23:54:15;;;;;;;;;;;;;;;20.57;56.58;101399.81;10419817;28;19921;-70
2023/06/09 23:59:16;;;;;;;;;;;;;;;20.52;57.21;101402.50;10419631;28;20031;-70
